SARL/AOL METAR and TAF weather

Enter ICAO airport designator
Station Type Date Time Source
SARL METAR 2020/02/20 18:00 UTC NOAA

SARL 201800Z 18018KT 9999 SCT020 28/18 Q1014


Station Type Date Time Source
SARL Decoded METAR 2020/02/20 18:00 UTC NOAA

Paso De Los Libres Aerodrome, Argentina (SARL) 29-41S 057-09W 70M
Feb 20, 2020 - 01:00 PM EST / 2020.02.20 1800 UTC
Wind: from the S (180 degrees) at 21 MPH (18 KT):0
Visibility: greater than 7 mile(s):0
Sky conditions: partly cloudy
Temperature: 82 F (28 C)
Dew Point: 64 F (18 C)
Relative Humidity: 54%
Pressure (altimeter): 29.94 in. Hg (1014 hPa)
ob: SARL 201800Z 18018KT 9999 SCT020 28/18 Q1014
cycle: 18

Station Type Date Time Source
SARL TAF UTC NOAA

Error!

Example: see airport list